Terminal Aerodrome Forecast
Issued by NWS Detroit/Pontiac, MI

Home | Current Version | Previous Version | Text Only | Print | Product List | Glossary On
Versions: 1 2 3 4 5 6 7 8 9 10 11 12 13 14 15 16 17 18 19 20 21 22 23 24
127
FTUS43 KDTX 252101 AAA
TAFDTW
TAF AMD
KDTW 252101Z 2521/2624 28010G18KT P6SM SCT060
     FM260100 30006KT P6SM SKC
     FM261200 36005KT P6SM SKC=

USA.gov is the U.S. government's official web portal to all federal, state and local government web resources and services.